sensor_id;sensor_type;location;lat;lon;timestamp;temperature;humidity
16523;DHT22;19889;52.546;13.348;2022-11-15T00:01:16;9.50;99.90
16523;DHT22;19889;52.546;13.348;2022-11-15T00:04:04;9.50;99.90
16523;DHT22;19889;52.546;13.348;2022-11-15T00:06:50;9.40;99.90
16523;DHT22;19889;52.546;13.348;2022-11-15T00:09:35;9.50;99.90
16523;DHT22;19889;52.546;13.348;2022-11-15T00:12:21;9.50;99.90
16523;DHT22;19889;52.546;13.348;2022-11-15T00:15:07;9.50;99.90
16523;DHT22;19889;52.546;13.348;2022-11-15T00:17:53;9.50;99.90
16523;DHT22;19889;52.546;13.348;2022-11-15T00:20:40;9.50;99.90
16523;DHT22;19889;52.546;13.348;2022-11-15T00:23:25;9.50;99.90
16523;DHT22;19889;52.546;13.348;2022-11-15T00:26:12;9.50;99.90
16523;DHT22;19889;52.546;13.348;2022-11-15T00:28:58;9.40;99.90
16523;DHT22;19889;52.546;13.348;2022-11-15T00:31:43;9.50;99.90
16523;DHT22;19889;52.546;13.348;2022-11-15T00:34:29;9.50;99.90
16523;DHT22;19889;52.546;13.348;2022-11-15T00:37:16;9.40;99.90
16523;DHT22;19889;52.546;13.348;2022-11-15T00:40:01;9.40;99.90
16523;DHT22;19889;52.546;13.348;2022-11-15T00:42:47;9.40;99.90
16523;DHT22;19889;52.546;13.348;2022-11-15T00:45:32;9.40;99.90
16523;DHT22;19889;52.546;13.348;2022-11-15T00:48:18;9.50;99.90
16523;DHT22;19889;52.546;13.348;2022-11-15T00:51:03;9.40;99.90
16523;DHT22;19889;52.546;13.348;2022-11-15T00:53:50;9.40;99.90
16523;DHT22;19889;52.546;13.348;2022-11-15T00:56:36;9.40;99.90
16523;DHT22;19889;52.546;13.348;2022-11-15T00:59:21;9.40;99.90
16523;DHT22;19889;52.546;13.348;2022-11-15T01:02:10;9.40;99.90
16523;DHT22;19889;52.546;13.348;2022-11-15T01:04:55;9.40;99.90
16523;DHT22;19889;52.546;13.348;2022-11-15T01:07:41;9.40;99.90
16523;DHT22;19889;52.546;13.348;2022-11-15T01:10:28;9.40;99.90
16523;DHT22;19889;52.546;13.348;2022-11-15T01:13:13;9.40;99.90
16523;DHT22;19889;52.546;13.348;2022-11-15T01:15:59;9.40;99.90
16523;DHT22;19889;52.546;13.348;2022-11-15T01:18:45;9.30;99.90
16523;DHT22;19889;52.546;13.348;2022-11-15T01:21:31;9.30;99.90
16523;DHT22;19889;52.546;13.348;2022-11-15T01:24:16;9.30;99.90
16523;DHT22;19889;52.546;13.348;2022-11-15T01:27:03;9.40;99.90
16523;DHT22;19889;52.546;13.348;2022-11-15T01:29:49;9.30;99.90
16523;DHT22;19889;52.546;13.348;2022-11-15T01:32:34;9.30;99.90
16523;DHT22;19889;52.546;13.348;2022-11-15T01:35:20;9.30;99.90
16523;DHT22;19889;52.546;13.348;2022-11-15T01:38:05;9.30;99.90
16523;DHT22;19889;52.546;13.348;2022-11-15T01:40:51;9.30;99.90
16523;DHT22;19889;52.546;13.348;2022-11-15T01:43:39;9.30;99.90
16523;DHT22;19889;52.546;13.348;2022-11-15T01:46:30;9.20;99.90
16523;DHT22;19889;52.546;13.348;2022-11-15T01:49:18;9.20;99.90
16523;DHT22;19889;52.546;13.348;2022-11-15T01:52:07;9.20;99.90
16523;DHT22;19889;52.546;13.348;2022-11-15T01:54:58;9.20;99.90
16523;DHT22;19889;52.546;13.348;2022-11-15T01:57:47;9.20;99.90
16523;DHT22;19889;52.546;13.348;2022-11-15T02:00:35;9.20;99.90
16523;DHT22;19889;52.546;13.348;2022-11-15T02:03:24;9.10;99.90
16523;DHT22;19889;52.546;13.348;2022-11-15T02:06:11;9.20;99.90
16523;DHT22;19889;52.546;13.348;2022-11-15T02:08:57;9.20;99.90
16523;DHT22;19889;52.546;13.348;2022-11-15T02:11:43;9.20;99.90
16523;DHT22;19889;52.546;13.348;2022-11-15T02:14:31;9.20;99.90
16523;DHT22;19889;52.546;13.348;2022-11-15T02:17:36;9.20;99.90
16523;DHT22;19889;52.546;13.348;2022-11-15T02:20:37;9.20;99.90
16523;DHT22;19889;52.546;13.348;2022-11-15T02:23:53;9.20;99.90
16523;DHT22;19889;52.546;13.348;2022-11-15T02:27:25;9.20;99.90
16523;DHT22;19889;52.546;13.348;2022-11-15T02:30:20;9.20;99.90
16523;DHT22;19889;52.546;13.348;2022-11-15T02:33:13;9.10;99.90
16523;DHT22;19889;52.546;13.348;2022-11-15T02:36:02;9.10;99.90
16523;DHT22;19889;52.546;13.348;2022-11-15T02:38:54;9.10;99.90
16523;DHT22;19889;52.546;13.348;2022-11-15T02:41:46;9.10;99.90
16523;DHT22;19889;52.546;13.348;2022-11-15T02:44:36;9.10;99.90
16523;DHT22;19889;52.546;13.348;2022-11-15T02:47:26;9.10;99.90
16523;DHT22;19889;52.546;13.348;2022-11-15T02:50:18;9.10;99.90
16523;DHT22;19889;52.546;13.348;2022-11-15T02:53:04;9.10;99.90
16523;DHT22;19889;52.546;13.348;2022-11-15T02:55:50;9.10;99.90
16523;DHT22;19889;52.546;13.348;2022-11-15T02:59:00;9.10;99.90
16523;DHT22;19889;52.546;13.348;2022-11-15T03:02:00;9.10;99.90
16523;DHT22;19889;52.546;13.348;2022-11-15T03:04:54;9.10;99.90
16523;DHT22;19889;52.546;13.348;2022-11-15T03:07:44;9.10;99.90
16523;DHT22;19889;52.546;13.348;2022-11-15T03:10:36;9.00;99.90
16523;DHT22;19889;52.546;13.348;2022-11-15T03:13:27;9.10;99.90
16523;DHT22;19889;52.546;13.348;2022-11-15T03:16:18;9.20;99.90
16523;DHT22;19889;52.546;13.348;2022-11-15T03:19:13;9.10;99.90
16523;DHT22;19889;52.546;13.348;2022-11-15T03:22:03;9.10;99.90
16523;DHT22;19889;52.546;13.348;2022-11-15T03:24:53;9.10;99.90
16523;DHT22;19889;52.546;13.348;2022-11-15T03:27:43;9.10;99.90
16523;DHT22;19889;52.546;13.348;2022-11-15T03:30:31;9.10;99.90
16523;DHT22;19889;52.546;13.348;2022-11-15T03:33:18;9.00;99.90
16523;DHT22;19889;52.546;13.348;2022-11-15T03:36:05;9.10;99.90
16523;DHT22;19889;52.546;13.348;2022-11-15T03:38:54;9.10;99.90
16523;DHT22;19889;52.546;13.348;2022-11-15T03:41:46;9.10;99.90
16523;DHT22;19889;52.546;13.348;2022-11-15T03:44:41;9.20;99.90
16523;DHT22;19889;52.546;13.348;2022-11-15T03:47:32;9.10;99.90
16523;DHT22;19889;52.546;13.348;2022-11-15T03:50:21;9.10;99.90
16523;DHT22;19889;52.546;13.348;2022-11-15T03:53:08;9.10;99.90
16523;DHT22;19889;52.546;13.348;2022-11-15T03:55:54;9.20;99.90
16523;DHT22;19889;52.546;13.348;2022-11-15T03:58:40;9.20;99.90
16523;DHT22;19889;52.546;13.348;2022-11-15T04:01:25;9.10;99.90
16523;DHT22;19889;52.546;13.348;2022-11-15T04:04:11;9.10;99.90
16523;DHT22;19889;52.546;13.348;2022-11-15T04:06:56;9.10;99.90
16523;DHT22;19889;52.546;13.348;2022-11-15T04:09:42;9.10;99.90
16523;DHT22;19889;52.546;13.348;2022-11-15T04:12:44;9.30;99.90
16523;DHT22;19889;52.546;13.348;2022-11-15T04:15:31;9.10;99.90
16523;DHT22;19889;52.546;13.348;2022-11-15T04:18:17;9.10;99.90
16523;DHT22;19889;52.546;13.348;2022-11-15T04:21:03;9.10;99.90
16523;DHT22;19889;52.546;13.348;2022-11-15T04:24:06;9.10;99.90
16523;DHT22;19889;52.546;13.348;2022-11-15T04:26:58;9.10;99.90
16523;DHT22;19889;52.546;13.348;2022-11-15T04:29:44;9.10;99.90
16523;DHT22;19889;52.546;13.348;2022-11-15T04:32:29;9.10;99.90
16523;DHT22;19889;52.546;13.348;2022-11-15T04:35:15;9.10;99.90
16523;DHT22;19889;52.546;13.348;2022-11-15T04:38:02;9.10;99.90
16523;DHT22;19889;52.546;13.348;2022-11-15T04:40:48;9.10;99.90
16523;DHT22;19889;52.546;13.348;2022-11-15T04:43:33;9.10;99.90
16523;DHT22;19889;52.546;13.348;2022-11-15T04:46:20;9.10;99.90
16523;DHT22;19889;52.546;13.348;2022-11-15T04:49:06;9.10;99.90
16523;DHT22;19889;52.546;13.348;2022-11-15T04:51:51;9.10;99.90
16523;DHT22;19889;52.546;13.348;2022-11-15T04:54:37;9.10;99.90
16523;DHT22;19889;52.546;13.348;2022-11-15T04:57:22;9.10;99.90
16523;DHT22;19889;52.546;13.348;2022-11-15T05:00:10;9.10;99.90
16523;DHT22;19889;52.546;13.348;2022-11-15T05:02:57;9.10;99.90
16523;DHT22;19889;52.546;13.348;2022-11-15T05:06:01;9.00;99.90
16523;DHT22;19889;52.546;13.348;2022-11-15T05:08:46;9.10;99.90
16523;DHT22;19889;52.546;13.348;2022-11-15T05:11:32;9.00;99.90
16523;DHT22;19889;52.546;13.348;2022-11-15T05:14:17;9.00;99.90
16523;DHT22;19889;52.546;13.348;2022-11-15T05:17:03;9.10;99.90
16523;DHT22;19889;52.546;13.348;2022-11-15T05:19:50;9.00;99.90
16523;DHT22;19889;52.546;13.348;2022-11-15T05:22:36;9.00;99.90
16523;DHT22;19889;52.546;13.348;2022-11-15T05:25:22;9.00;99.90
16523;DHT22;19889;52.546;13.348;2022-11-15T05:28:13;9.00;99.90
16523;DHT22;19889;52.546;13.348;2022-11-15T05:31:00;9.10;99.90
16523;DHT22;19889;52.546;13.348;2022-11-15T05:33:46;9.00;99.90
16523;DHT22;19889;52.546;13.348;2022-11-15T05:36:37;9.00;99.90
16523;DHT22;19889;52.546;13.348;2022-11-15T05:39:23;9.00;99.90
16523;DHT22;19889;52.546;13.348;2022-11-15T05:42:11;9.00;99.90
16523;DHT22;19889;52.546;13.348;2022-11-15T05:44:58;8.90;99.90
16523;DHT22;19889;52.546;13.348;2022-11-15T05:47:45;9.00;99.90
16523;DHT22;19889;52.546;13.348;2022-11-15T05:50:31;8.90;99.90
16523;DHT22;19889;52.546;13.348;2022-11-15T05:53:19;8.90;99.90
16523;DHT22;19889;52.546;13.348;2022-11-15T05:56:07;8.90;99.90
16523;DHT22;19889;52.546;13.348;2022-11-15T05:58:55;8.90;99.90
16523;DHT22;19889;52.546;13.348;2022-11-15T06:01:42;8.90;99.90
16523;DHT22;19889;52.546;13.348;2022-11-15T06:04:27;8.90;99.90
16523;DHT22;19889;52.546;13.348;2022-11-15T06:07:13;8.90;99.90
16523;DHT22;19889;52.546;13.348;2022-11-15T06:10:00;8.90;99.90
16523;DHT22;19889;52.546;13.348;2022-11-15T06:12:46;8.90;99.90
16523;DHT22;19889;52.546;13.348;2022-11-15T06:15:32;8.90;99.90
16523;DHT22;19889;52.546;13.348;2022-11-15T06:18:18;8.80;99.90
16523;DHT22;19889;52.546;13.348;2022-11-15T06:21:04;8.90;99.90
16523;DHT22;19889;52.546;13.348;2022-11-15T06:23:50;8.90;99.90
16523;DHT22;19889;52.546;13.348;2022-11-15T06:26:37;8.90;99.90
16523;DHT22;19889;52.546;13.348;2022-11-15T06:29:23;8.90;99.90
16523;DHT22;19889;52.546;13.348;2022-11-15T06:32:08;8.90;99.90
16523;DHT22;19889;52.546;13.348;2022-11-15T06:34:54;8.90;99.90
16523;DHT22;19889;52.546;13.348;2022-11-15T06:37:40;8.90;99.90
16523;DHT22;19889;52.546;13.348;2022-11-15T06:40:25;8.90;99.90
16523;DHT22;19889;52.546;13.348;2022-11-15T06:43:12;8.90;99.90
16523;DHT22;19889;52.546;13.348;2022-11-15T06:45:59;8.90;99.90
16523;DHT22;19889;52.546;13.348;2022-11-15T06:48:44;8.90;99.90
16523;DHT22;19889;52.546;13.348;2022-11-15T06:51:30;8.90;99.90
16523;DHT22;19889;52.546;13.348;2022-11-15T06:54:15;8.90;99.90
16523;DHT22;19889;52.546;13.348;2022-11-15T06:57:01;8.90;99.90
16523;DHT22;19889;52.546;13.348;2022-11-15T06:59:48;8.90;99.90
16523;DHT22;19889;52.546;13.348;2022-11-15T07:02:33;8.90;99.90
16523;DHT22;19889;52.546;13.348;2022-11-15T07:05:19;8.90;99.90
16523;DHT22;19889;52.546;13.348;2022-11-15T07:08:04;9.00;99.90
16523;DHT22;19889;52.546;13.348;2022-11-15T07:10:50;9.00;99.90
16523;DHT22;19889;52.546;13.348;2022-11-15T07:13:36;9.00;99.90
16523;DHT22;19889;52.546;13.348;2022-11-15T07:16:23;7.30;99.90
16523;DHT22;19889;52.546;13.348;2022-11-15T07:19:08;9.00;99.90
16523;DHT22;19889;52.546;13.348;2022-11-15T07:21:54;9.00;99.90
16523;DHT22;19889;52.546;13.348;2022-11-15T07:24:39;9.00;99.90
16523;DHT22;19889;52.546;13.348;2022-11-15T07:27:25;9.00;99.90
16523;DHT22;19889;52.546;13.348;2022-11-15T07:30:12;9.00;99.90
16523;DHT22;19889;52.546;13.348;2022-11-15T07:33:00;9.00;99.90
16523;DHT22;19889;52.546;13.348;2022-11-15T07:35:45;9.00;99.90
16523;DHT22;19889;52.546;13.348;2022-11-15T07:38:34;9.00;99.90
16523;DHT22;19889;52.546;13.348;2022-11-15T07:41:19;9.10;99.90
16523;DHT22;19889;52.546;13.348;2022-11-15T07:44:05;9.10;99.90
16523;DHT22;19889;52.546;13.348;2022-11-15T07:46:50;9.10;99.90
16523;DHT22;19889;52.546;13.348;2022-11-15T07:49:37;9.20;99.90
16523;DHT22;19889;52.546;13.348;2022-11-15T07:52:23;9.20;99.90
16523;DHT22;19889;52.546;13.348;2022-11-15T07:55:08;9.30;99.90
16523;DHT22;19889;52.546;13.348;2022-11-15T07:58:00;9.40;99.90
16523;DHT22;19889;52.546;13.348;2022-11-15T08:00:46;9.40;99.90
16523;DHT22;19889;52.546;13.348;2022-11-15T08:03:32;9.30;99.90
16523;DHT22;19889;52.546;13.348;2022-11-15T08:06:19;9.40;99.90
16523;DHT22;19889;52.546;13.348;2022-11-15T08:09:05;9.40;99.90
16523;DHT22;19889;52.546;13.348;2022-11-15T08:11:50;9.40;99.90
16523;DHT22;19889;52.546;13.348;2022-11-15T08:14:36;9.40;99.90
16523;DHT22;19889;52.546;13.348;2022-11-15T08:17:21;9.50;99.90
16523;DHT22;19889;52.546;13.348;2022-11-15T08:20:08;9.50;99.90
16523;DHT22;19889;52.546;13.348;2022-11-15T08:22:55;9.50;99.90
16523;DHT22;19889;52.546;13.348;2022-11-15T08:25:40;9.50;99.90
16523;DHT22;19889;52.546;13.348;2022-11-15T08:28:26;9.50;99.90
16523;DHT22;19889;52.546;13.348;2022-11-15T08:31:14;9.60;99.90
16523;DHT22;19889;52.546;13.348;2022-11-15T08:34:00;9.60;99.90
16523;DHT22;19889;52.546;13.348;2022-11-15T08:36:46;9.60;99.90
16523;DHT22;19889;52.546;13.348;2022-11-15T08:39:33;9.60;99.90
16523;DHT22;19889;52.546;13.348;2022-11-15T08:42:18;9.60;99.90
16523;DHT22;19889;52.546;13.348;2022-11-15T08:45:05;9.70;99.90
16523;DHT22;19889;52.546;13.348;2022-11-15T08:47:50;9.70;99.90
16523;DHT22;19889;52.546;13.348;2022-11-15T08:50:36;9.80;99.90
16523;DHT22;19889;52.546;13.348;2022-11-15T08:53:22;9.80;99.90
16523;DHT22;19889;52.546;13.348;2022-11-15T08:56:10;9.80;99.90
16523;DHT22;19889;52.546;13.348;2022-11-15T08:58:55;9.80;99.90
16523;DHT22;19889;52.546;13.348;2022-11-15T09:01:41;9.80;99.90
16523;DHT22;19889;52.546;13.348;2022-11-15T09:04:26;9.90;99.90
16523;DHT22;19889;52.546;13.348;2022-11-15T09:07:15;9.90;99.90
16523;DHT22;19889;52.546;13.348;2022-11-15T09:10:00;9.90;99.90
16523;DHT22;19889;52.546;13.348;2022-11-15T09:12:47;10.00;99.90
16523;DHT22;19889;52.546;13.348;2022-11-15T09:15:40;10.00;99.90
16523;DHT22;19889;52.546;13.348;2022-11-15T09:18:26;10.10;99.90
16523;DHT22;19889;52.546;13.348;2022-11-15T09:21:11;10.10;99.90
16523;DHT22;19889;52.546;13.348;2022-11-15T09:23:57;10.10;99.90
16523;DHT22;19889;52.546;13.348;2022-11-15T09:26:42;10.10;99.90
16523;DHT22;19889;52.546;13.348;2022-11-15T09:29:29;10.10;99.90
16523;DHT22;19889;52.546;13.348;2022-11-15T09:32:14;10.30;99.90
16523;DHT22;19889;52.546;13.348;2022-11-15T09:35:00;10.20;99.90
16523;DHT22;19889;52.546;13.348;2022-11-15T09:37:45;10.20;99.90
16523;DHT22;19889;52.546;13.348;2022-11-15T09:40:32;11.50;99.90
16523;DHT22;19889;52.546;13.348;2022-11-15T09:43:29;10.30;99.90
16523;DHT22;19889;52.546;13.348;2022-11-15T09:46:24;10.30;99.90
16523;DHT22;19889;52.546;13.348;2022-11-15T09:49:14;10.30;99.90
16523;DHT22;19889;52.546;13.348;2022-11-15T09:51:58;10.40;99.90
16523;DHT22;19889;52.546;13.348;2022-11-15T09:54:30;10.40;99.90
16523;DHT22;19889;52.546;13.348;2022-11-15T09:57:04;10.40;99.90
16523;DHT22;19889;52.546;13.348;2022-11-15T09:59:42;10.40;99.90
16523;DHT22;19889;52.546;13.348;2022-11-15T10:02:23;10.50;99.90
16523;DHT22;19889;52.546;13.348;2022-11-15T10:04:53;10.50;99.90
16523;DHT22;19889;52.546;13.348;2022-11-15T10:07:23;10.50;99.90
16523;DHT22;19889;52.546;13.348;2022-11-15T10:09:55;10.50;99.90
16523;DHT22;19889;52.546;13.348;2022-11-15T10:12:25;10.60;99.90
16523;DHT22;19889;52.546;13.348;2022-11-15T10:15:00;10.70;99.90
16523;DHT22;19889;52.546;13.348;2022-11-15T10:17:41;10.60;99.90
16523;DHT22;19889;52.546;13.348;2022-11-15T10:20:31;10.70;99.90
16523;DHT22;19889;52.546;13.348;2022-11-15T10:23:06;10.70;99.90
16523;DHT22;19889;52.546;13.348;2022-11-15T10:25:34;10.80;99.90
16523;DHT22;19889;52.546;13.348;2022-11-15T10:28:09;10.80;99.90
16523;DHT22;19889;52.546;13.348;2022-11-15T10:30:41;10.80;99.90
16523;DHT22;19889;52.546;13.348;2022-11-15T10:33:23;10.80;99.90
16523;DHT22;19889;52.546;13.348;2022-11-15T10:36:16;10.80;99.90
16523;DHT22;19889;52.546;13.348;2022-11-15T10:38:52;10.90;99.90
16523;DHT22;19889;52.546;13.348;2022-11-15T10:41:22;10.90;99.90
16523;DHT22;19889;52.546;13.348;2022-11-15T10:44:03;10.90;99.90
16523;DHT22;19889;52.546;13.348;2022-11-15T10:46:35;10.90;99.90
16523;DHT22;19889;52.546;13.348;2022-11-15T10:49:13;11.00;99.90
16523;DHT22;19889;52.546;13.348;2022-11-15T10:51:44;10.90;99.90
16523;DHT22;19889;52.546;13.348;2022-11-15T10:54:14;11.00;99.90
16523;DHT22;19889;52.546;13.348;2022-11-15T10:56:42;11.00;99.90
16523;DHT22;19889;52.546;13.348;2022-11-15T10:59:16;11.00;99.90
16523;DHT22;19889;52.546;13.348;2022-11-15T11:01:48;11.10;99.90
16523;DHT22;19889;52.546;13.348;2022-11-15T11:04:16;11.20;99.90
16523;DHT22;19889;52.546;13.348;2022-11-15T11:06:47;11.10;99.90
16523;DHT22;19889;52.546;13.348;2022-11-15T11:09:23;11.10;99.90
16523;DHT22;19889;52.546;13.348;2022-11-15T11:11:53;11.10;99.90
16523;DHT22;19889;52.546;13.348;2022-11-15T11:14:22;11.20;99.90
16523;DHT22;19889;52.546;13.348;2022-11-15T11:16:53;11.20;99.90
16523;DHT22;19889;52.546;13.348;2022-11-15T11:19:41;11.30;99.90
16523;DHT22;19889;52.546;13.348;2022-11-15T11:22:17;11.30;99.90
16523;DHT22;19889;52.546;13.348;2022-11-15T11:25:08;11.40;99.90
16523;DHT22;19889;52.546;13.348;2022-11-15T11:27:43;11.40;99.90
16523;DHT22;19889;52.546;13.348;2022-11-15T11:30:16;11.40;99.90
16523;DHT22;19889;52.546;13.348;2022-11-15T11:33:01;11.40;99.90
16523;DHT22;19889;52.546;13.348;2022-11-15T11:35:36;11.40;99.90
16523;DHT22;19889;52.546;13.348;2022-11-15T11:38:19;11.40;99.90
16523;DHT22;19889;52.546;13.348;2022-11-15T11:41:00;11.50;99.90
16523;DHT22;19889;52.546;13.348;2022-11-15T11:43:36;11.50;99.90
16523;DHT22;19889;52.546;13.348;2022-11-15T11:46:24;11.40;99.90
16523;DHT22;19889;52.546;13.348;2022-11-15T11:48:58;11.50;99.90
16523;DHT22;19889;52.546;13.348;2022-11-15T11:51:34;11.60;99.90
16523;DHT22;19889;52.546;13.348;2022-11-15T11:54:09;11.60;99.90
16523;DHT22;19889;52.546;13.348;2022-11-15T11:56:41;11.60;99.90
16523;DHT22;19889;52.546;13.348;2022-11-15T11:59:27;11.60;99.90
16523;DHT22;19889;52.546;13.348;2022-11-15T12:01:57;11.60;99.90
16523;DHT22;19889;52.546;13.348;2022-11-15T12:04:30;11.70;99.90
16523;DHT22;19889;52.546;13.348;2022-11-15T12:07:07;11.70;99.90
16523;DHT22;19889;52.546;13.348;2022-11-15T12:09:38;11.80;99.90
16523;DHT22;19889;52.546;13.348;2022-11-15T12:12:11;11.80;99.90
16523;DHT22;19889;52.546;13.348;2022-11-15T12:14:45;11.90;99.90
16523;DHT22;19889;52.546;13.348;2022-11-15T12:17:13;11.90;99.90
16523;DHT22;19889;52.546;13.348;2022-11-15T12:19:42;11.20;99.90
16523;DHT22;19889;52.546;13.348;2022-11-15T12:22:16;11.90;99.90
16523;DHT22;19889;52.546;13.348;2022-11-15T12:24:49;12.00;99.90
16523;DHT22;19889;52.546;13.348;2022-11-15T12:27:18;12.00;99.90
16523;DHT22;19889;52.546;13.348;2022-11-15T12:29:49;12.00;99.90
16523;DHT22;19889;52.546;13.348;2022-11-15T12:32:25;12.00;99.90
16523;DHT22;19889;52.546;13.348;2022-11-15T12:34:53;12.00;99.90
16523;DHT22;19889;52.546;13.348;2022-11-15T12:37:53;12.00;99.90
16523;DHT22;19889;52.546;13.348;2022-11-15T12:40:31;12.00;99.90
16523;DHT22;19889;52.546;13.348;2022-11-15T12:46:04;12.00;99.90
16523;DHT22;19889;52.546;13.348;2022-11-15T12:48:59;12.00;99.90
16523;DHT22;19889;52.546;13.348;2022-11-15T12:55:00;12.10;99.90
16523;DHT22;19889;52.546;13.348;2022-11-15T12:57:41;12.10;99.90
16523;DHT22;19889;52.546;13.348;2022-11-15T13:00:38;12.10;99.90
16523;DHT22;19889;52.546;13.348;2022-11-15T13:03:23;12.10;99.90
16523;DHT22;19889;52.546;13.348;2022-11-15T13:06:09;12.20;99.90
16523;DHT22;19889;52.546;13.348;2022-11-15T13:08:38;12.20;99.90
16523;DHT22;19889;52.546;13.348;2022-11-15T13:14:42;12.20;99.90
16523;DHT22;19889;52.546;13.348;2022-11-15T13:17:36;12.20;99.90
16523;DHT22;19889;52.546;13.348;2022-11-15T13:20:29;12.20;99.90
16523;DHT22;19889;52.546;13.348;2022-11-15T13:23:02;12.20;99.90
16523;DHT22;19889;52.546;13.348;2022-11-15T13:26:04;12.40;99.90
16523;DHT22;19889;52.546;13.348;2022-11-15T13:28:36;12.20;99.90
16523;DHT22;19889;52.546;13.348;2022-11-15T13:31:24;11.90;99.90
16523;DHT22;19889;52.546;13.348;2022-11-15T13:33:53;12.30;99.90
16523;DHT22;19889;52.546;13.348;2022-11-15T13:36:22;12.30;99.90
16523;DHT22;19889;52.546;13.348;2022-11-15T13:38:56;12.40;99.90
16523;DHT22;19889;52.546;13.348;2022-11-15T13:41:26;12.40;99.90
16523;DHT22;19889;52.546;13.348;2022-11-15T13:43:54;12.40;99.90
16523;DHT22;19889;52.546;13.348;2022-11-15T13:46:24;12.40;99.90
16523;DHT22;19889;52.546;13.348;2022-11-15T13:48:54;12.40;99.90
16523;DHT22;19889;52.546;13.348;2022-11-15T13:51:27;12.40;99.90
16523;DHT22;19889;52.546;13.348;2022-11-15T13:53:59;12.40;99.90
16523;DHT22;19889;52.546;13.348;2022-11-15T13:56:29;12.50;99.90
16523;DHT22;19889;52.546;13.348;2022-11-15T13:58:57;12.50;99.90
16523;DHT22;19889;52.546;13.348;2022-11-15T14:01:29;12.50;99.90
16523;DHT22;19889;52.546;13.348;2022-11-15T14:03:59;12.60;99.90
16523;DHT22;19889;52.546;13.348;2022-11-15T14:06:29;12.40;99.90
16523;DHT22;19889;52.546;13.348;2022-11-15T14:12:00;12.50;99.90
16523;DHT22;19889;52.546;13.348;2022-11-15T14:14:29;12.50;99.90
16523;DHT22;19889;52.546;13.348;2022-11-15T14:16:59;12.50;99.90
16523;DHT22;19889;52.546;13.348;2022-11-15T14:19:37;12.50;99.90
16523;DHT22;19889;52.546;13.348;2022-11-15T14:22:14;12.50;99.90
16523;DHT22;19889;52.546;13.348;2022-11-15T14:24:43;12.50;99.90
16523;DHT22;19889;52.546;13.348;2022-11-15T14:27:21;12.50;99.90
16523;DHT22;19889;52.546;13.348;2022-11-15T14:29:49;12.50;99.90
16523;DHT22;19889;52.546;13.348;2022-11-15T14:32:19;12.50;99.90
16523;DHT22;19889;52.546;13.348;2022-11-15T14:34:47;12.50;99.90
16523;DHT22;19889;52.546;13.348;2022-11-15T14:37:23;12.50;99.90
16523;DHT22;19889;52.546;13.348;2022-11-15T14:39:50;12.50;99.90
16523;DHT22;19889;52.546;13.348;2022-11-15T14:42:18;12.50;99.90
16523;DHT22;19889;52.546;13.348;2022-11-15T14:44:45;12.60;99.90
16523;DHT22;19889;52.546;13.348;2022-11-15T14:47:12;12.50;99.90
16523;DHT22;19889;52.546;13.348;2022-11-15T14:49:41;12.50;99.90
16523;DHT22;19889;52.546;13.348;2022-11-15T14:52:23;12.50;99.90
16523;DHT22;19889;52.546;13.348;2022-11-15T14:54:51;12.60;99.90
16523;DHT22;19889;52.546;13.348;2022-11-15T14:57:18;12.50;99.90
16523;DHT22;19889;52.546;13.348;2022-11-15T14:59:45;12.50;99.90
16523;DHT22;19889;52.546;13.348;2022-11-15T15:02:16;12.50;99.90
16523;DHT22;19889;52.546;13.348;2022-11-15T15:04:45;12.50;99.90
16523;DHT22;19889;52.546;13.348;2022-11-15T15:07:12;12.50;99.90
16523;DHT22;19889;52.546;13.348;2022-11-15T15:09:39;12.50;99.90
16523;DHT22;19889;52.546;13.348;2022-11-15T15:12:13;12.50;99.90
16523;DHT22;19889;52.546;13.348;2022-11-15T15:14:41;12.50;99.90
16523;DHT22;19889;52.546;13.348;2022-11-15T15:17:08;12.40;99.90
16523;DHT22;19889;52.546;13.348;2022-11-15T15:19:35;12.40;99.90
16523;DHT22;19889;52.546;13.348;2022-11-15T15:22:03;12.40;99.90
16523;DHT22;19889;52.546;13.348;2022-11-15T15:24:30;12.40;99.90
16523;DHT22;19889;52.546;13.348;2022-11-15T15:26:57;12.40;99.90
16523;DHT22;19889;52.546;13.348;2022-11-15T15:29:24;12.40;99.90
16523;DHT22;19889;52.546;13.348;2022-11-15T15:31:51;12.40;99.90
16523;DHT22;19889;52.546;13.348;2022-11-15T15:34:18;12.40;99.90
16523;DHT22;19889;52.546;13.348;2022-11-15T15:36:45;12.40;99.90
16523;DHT22;19889;52.546;13.348;2022-11-15T15:39:13;12.40;99.90
16523;DHT22;19889;52.546;13.348;2022-11-15T15:41:40;12.40;99.90
16523;DHT22;19889;52.546;13.348;2022-11-15T15:44:07;12.40;99.90
16523;DHT22;19889;52.546;13.348;2022-11-15T15:46:34;12.30;99.90
16523;DHT22;19889;52.546;13.348;2022-11-15T15:49:01;12.30;99.90
16523;DHT22;19889;52.546;13.348;2022-11-15T15:51:29;12.30;99.90
16523;DHT22;19889;52.546;13.348;2022-11-15T15:53:55;12.30;99.90
16523;DHT22;19889;52.546;13.348;2022-11-15T15:56:25;12.30;99.90
16523;DHT22;19889;52.546;13.348;2022-11-15T15:58:53;12.30;99.90
16523;DHT22;19889;52.546;13.348;2022-11-15T16:01:21;12.30;99.90
16523;DHT22;19889;52.546;13.348;2022-11-15T16:03:48;12.20;99.90
16523;DHT22;19889;52.546;13.348;2022-11-15T16:06:35;12.30;99.90
16523;DHT22;19889;52.546;13.348;2022-11-15T16:09:03;12.30;99.90
16523;DHT22;19889;52.546;13.348;2022-11-15T16:11:32;12.30;99.90
16523;DHT22;19889;52.546;13.348;2022-11-15T16:13:59;12.20;99.90
16523;DHT22;19889;52.546;13.348;2022-11-15T16:16:26;12.20;99.90
16523;DHT22;19889;52.546;13.348;2022-11-15T16:18:53;12.30;99.90
16523;DHT22;19889;52.546;13.348;2022-11-15T16:21:20;12.20;99.90
16523;DHT22;19889;52.546;13.348;2022-11-15T16:23:47;12.20;99.90
16523;DHT22;19889;52.546;13.348;2022-11-15T16:26:19;12.20;99.90
16523;DHT22;19889;52.546;13.348;2022-11-15T16:28:48;12.20;99.90
16523;DHT22;19889;52.546;13.348;2022-11-15T16:31:15;12.10;99.90
16523;DHT22;19889;52.546;13.348;2022-11-15T16:33:44;12.10;99.90
16523;DHT22;19889;52.546;13.348;2022-11-15T16:36:20;12.10;99.90
16523;DHT22;19889;52.546;13.348;2022-11-15T16:38:47;12.10;99.90
16523;DHT22;19889;52.546;13.348;2022-11-15T16:41:14;12.10;99.90
16523;DHT22;19889;52.546;13.348;2022-11-15T16:43:44;12.10;99.90
16523;DHT22;19889;52.546;13.348;2022-11-15T16:46:16;12.10;99.90
16523;DHT22;19889;52.546;13.348;2022-11-15T16:48:43;12.10;99.90
16523;DHT22;19889;52.546;13.348;2022-11-15T16:51:10;12.00;99.90
16523;DHT22;19889;52.546;13.348;2022-11-15T16:53:37;12.00;99.90
16523;DHT22;19889;52.546;13.348;2022-11-15T16:56:22;12.00;99.90
16523;DHT22;19889;52.546;13.348;2022-11-15T16:58:50;11.90;99.90
16523;DHT22;19889;52.546;13.348;2022-11-15T17:01:22;11.90;99.90
16523;DHT22;19889;52.546;13.348;2022-11-15T17:03:49;11.90;99.90